sensor_id;sensor_type;location;lat;lon;timestamp;P1;durP1;ratioP1;P2;durP2;ratioP2
75508;SDS011;64214;47.250;11.332;2022-10-16T00:00:00;6.13;;;3.40;;
75508;SDS011;64214;47.250;11.332;2022-10-16T00:00:11;6.60;;;3.45;;
75508;SDS011;64214;47.250;11.332;2022-10-16T00:00:22;4.35;;;3.28;;
75508;SDS011;64214;47.250;11.332;2022-10-16T00:00:34;4.25;;;3.30;;
75508;SDS011;64214;47.250;11.332;2022-10-16T00:00:46;4.07;;;3.30;;
75508;SDS011;64214;47.250;11.332;2022-10-16T00:00:57;5.03;;;3.60;;
75508;SDS011;64214;47.250;11.332;2022-10-16T00:01:10;5.38;;;3.50;;
75508;SDS011;64214;47.250;11.332;2022-10-16T00:01:24;5.82;;;3.35;;
75508;SDS011;64214;47.250;11.332;2022-10-16T00:01:39;4.60;;;3.13;;
75508;SDS011;64214;47.250;11.332;2022-10-16T00:01:50;4.43;;;3.13;;
75508;SDS011;64214;47.250;11.332;2022-10-16T00:02:01;4.40;;;3.17;;
75508;SDS011;64214;47.250;11.332;2022-10-16T00:02:12;3.33;;;2.92;;
75508;SDS011;64214;47.250;11.332;2022-10-16T00:02:23;3.22;;;2.90;;
75508;SDS011;64214;47.250;11.332;2022-10-16T00:02:35;4.40;;;2.95;;
75508;SDS011;64214;47.250;11.332;2022-10-16T00:02:46;4.38;;;3.00;;
75508;SDS011;64214;47.250;11.332;2022-10-16T00:02:57;5.05;;;3.17;;
75508;SDS011;64214;47.250;11.332;2022-10-16T00:03:08;4.53;;;3.33;;
75508;SDS011;64214;47.250;11.332;2022-10-16T00:03:20;4.35;;;3.30;;
75508;SDS011;64214;47.250;11.332;2022-10-16T00:03:31;4.25;;;3.13;;
75508;SDS011;64214;47.250;11.332;2022-10-16T00:03:43;4.93;;;3.17;;
75508;SDS011;64214;47.250;11.332;2022-10-16T00:03:55;5.30;;;3.33;;
75508;SDS011;64214;47.250;11.332;2022-10-16T00:04:07;4.63;;;3.22;;
75508;SDS011;64214;47.250;11.332;2022-10-16T00:04:19;4.88;;;3.30;;
75508;SDS011;64214;47.250;11.332;2022-10-16T00:04:30;4.55;;;3.22;;
75508;SDS011;64214;47.250;11.332;2022-10-16T00:04:41;4.28;;;3.50;;
75508;SDS011;64214;47.250;11.332;2022-10-16T00:04:52;3.95;;;3.50;;
75508;SDS011;64214;47.250;11.332;2022-10-16T00:05:05;4.88;;;3.58;;
75508;SDS011;64214;47.250;11.332;2022-10-16T00:05:16;5.40;;;3.70;;
75508;SDS011;64214;47.250;11.332;2022-10-16T00:05:27;5.30;;;3.53;;
75508;SDS011;64214;47.250;11.332;2022-10-16T00:05:42;4.65;;;3.28;;
75508;SDS011;64214;47.250;11.332;2022-10-16T00:05:53;4.60;;;2.90;;
75508;SDS011;64214;47.250;11.332;2022-10-16T00:06:09;4.53;;;3.00;;
75508;SDS011;64214;47.250;11.332;2022-10-16T00:06:21;4.20;;;3.10;;
75508;SDS011;64214;47.250;11.332;2022-10-16T00:06:33;4.03;;;3.13;;
75508;SDS011;64214;47.250;11.332;2022-10-16T00:06:44;3.85;;;3.00;;
75508;SDS011;64214;47.250;11.332;2022-10-16T00:06:55;3.85;;;3.10;;
75508;SDS011;64214;47.250;11.332;2022-10-16T00:07:06;4.25;;;3.25;;
75508;SDS011;64214;47.250;11.332;2022-10-16T00:07:17;4.63;;;3.30;;
75508;SDS011;64214;47.250;11.332;2022-10-16T00:07:29;5.30;;;3.42;;
75508;SDS011;64214;47.250;11.332;2022-10-16T00:07:40;5.40;;;3.53;;
75508;SDS011;64214;47.250;11.332;2022-10-16T00:07:51;5.55;;;3.70;;
75508;SDS011;64214;47.250;11.332;2022-10-16T00:08:02;6.28;;;3.45;;
75508;SDS011;64214;47.250;11.332;2022-10-16T00:08:14;6.30;;;3.30;;
75508;SDS011;64214;47.250;11.332;2022-10-16T00:08:25;5.82;;;3.22;;
75508;SDS011;64214;47.250;11.332;2022-10-16T00:08:36;5.68;;;3.25;;
75508;SDS011;64214;47.250;11.332;2022-10-16T00:08:48;5.32;;;3.15;;
75508;SDS011;64214;47.250;11.332;2022-10-16T00:09:00;4.72;;;3.10;;
75508;SDS011;64214;47.250;11.332;2022-10-16T00:09:11;4.68;;;3.45;;
75508;SDS011;64214;47.250;11.332;2022-10-16T00:09:22;5.30;;;3.67;;
75508;SDS011;64214;47.250;11.332;2022-10-16T00:09:33;5.43;;;3.60;;
75508;SDS011;64214;47.250;11.332;2022-10-16T00:09:45;5.63;;;3.42;;
75508;SDS011;64214;47.250;11.332;2022-10-16T00:09:56;5.47;;;3.20;;
75508;SDS011;64214;47.250;11.332;2022-10-16T00:10:08;5.63;;;3.30;;
75508;SDS011;64214;47.250;11.332;2022-10-16T00:10:19;5.65;;;3.30;;
75508;SDS011;64214;47.250;11.332;2022-10-16T00:10:30;5.57;;;3.47;;
75508;SDS011;64214;47.250;11.332;2022-10-16T00:10:41;5.53;;;3.58;;
75508;SDS011;64214;47.250;11.332;2022-10-16T00:10:52;5.65;;;3.63;;
75508;SDS011;64214;47.250;11.332;2022-10-16T00:11:38;6.43;;;3.40;;
75508;SDS011;64214;47.250;11.332;2022-10-16T00:11:50;5.97;;;3.40;;
75508;SDS011;64214;47.250;11.332;2022-10-16T00:12:01;5.00;;;3.25;;
75508;SDS011;64214;47.250;11.332;2022-10-16T00:12:14;3.85;;;3.13;;
75508;SDS011;64214;47.250;11.332;2022-10-16T00:12:25;4.60;;;3.40;;
75508;SDS011;64214;47.250;11.332;2022-10-16T00:12:36;6.53;;;3.40;;
75508;SDS011;64214;47.250;11.332;2022-10-16T00:12:47;7.13;;;3.15;;
75508;SDS011;64214;47.250;11.332;2022-10-16T00:12:59;7.28;;;3.33;;
75508;SDS011;64214;47.250;11.332;2022-10-16T00:13:10;5.40;;;3.40;;
75508;SDS011;64214;47.250;11.332;2022-10-16T00:13:21;4.53;;;3.38;;
75508;SDS011;64214;47.250;11.332;2022-10-16T00:13:33;4.22;;;3.20;;
75508;SDS011;64214;47.250;11.332;2022-10-16T00:13:45;5.20;;;3.20;;
75508;SDS011;64214;47.250;11.332;2022-10-16T00:13:58;4.97;;;2.95;;
75508;SDS011;64214;47.250;11.332;2022-10-16T00:14:11;4.25;;;2.75;;
75508;SDS011;64214;47.250;11.332;2022-10-16T00:14:24;5.20;;;2.90;;
75508;SDS011;64214;47.250;11.332;2022-10-16T00:14:35;5.70;;;3.25;;
75508;SDS011;64214;47.250;11.332;2022-10-16T00:14:47;4.78;;;3.38;;
75508;SDS011;64214;47.250;11.332;2022-10-16T00:14:58;4.50;;;3.22;;
75508;SDS011;64214;47.250;11.332;2022-10-16T00:15:09;4.47;;;3.30;;
75508;SDS011;64214;47.250;11.332;2022-10-16T00:15:20;5.10;;;3.45;;
75508;SDS011;64214;47.250;11.332;2022-10-16T00:15:35;4.80;;;3.53;;
75508;SDS011;64214;47.250;11.332;2022-10-16T00:15:47;4.78;;;3.17;;
75508;SDS011;64214;47.250;11.332;2022-10-16T00:15:58;4.78;;;3.30;;
75508;SDS011;64214;47.250;11.332;2022-10-16T00:16:10;4.60;;;3.30;;
75508;SDS011;64214;47.250;11.332;2022-10-16T00:16:22;4.38;;;3.22;;
75508;SDS011;64214;47.250;11.332;2022-10-16T00:16:34;4.85;;;3.22;;
75508;SDS011;64214;47.250;11.332;2022-10-16T00:16:45;4.83;;;3.30;;
75508;SDS011;64214;47.250;11.332;2022-10-16T00:16:56;5.75;;;3.40;;
75508;SDS011;64214;47.250;11.332;2022-10-16T00:17:07;5.20;;;3.33;;
75508;SDS011;64214;47.250;11.332;2022-10-16T00:17:18;4.57;;;3.40;;
75508;SDS011;64214;47.250;11.332;2022-10-16T00:17:29;4.40;;;3.40;;
75508;SDS011;64214;47.250;11.332;2022-10-16T00:17:41;4.88;;;3.53;;
75508;SDS011;64214;47.250;11.332;2022-10-16T00:17:52;5.05;;;3.50;;
75508;SDS011;64214;47.250;11.332;2022-10-16T00:18:03;4.85;;;3.40;;
75508;SDS011;64214;47.250;11.332;2022-10-16T00:18:15;4.75;;;3.40;;
75508;SDS011;64214;47.250;11.332;2022-10-16T00:18:26;4.60;;;3.40;;
75508;SDS011;64214;47.250;11.332;2022-10-16T00:18:39;4.50;;;3.50;;
75508;SDS011;64214;47.250;11.332;2022-10-16T00:18:50;4.35;;;3.33;;
75508;SDS011;64214;47.250;11.332;2022-10-16T00:19:01;3.78;;;3.08;;
75508;SDS011;64214;47.250;11.332;2022-10-16T00:19:12;3.60;;;2.95;;
75508;SDS011;64214;47.250;11.332;2022-10-16T00:19:23;4.25;;;3.08;;
75508;SDS011;64214;47.250;11.332;2022-10-16T00:19:35;4.68;;;3.33;;
75508;SDS011;64214;47.250;11.332;2022-10-16T00:19:46;4.93;;;3.53;;
75508;SDS011;64214;47.250;11.332;2022-10-16T00:19:57;5.13;;;3.58;;
75508;SDS011;64214;47.250;11.332;2022-10-16T00:20:08;4.65;;;3.25;;
75508;SDS011;64214;47.250;11.332;2022-10-16T00:20:19;3.90;;;3.10;;
75508;SDS011;64214;47.250;11.332;2022-10-16T00:20:33;3.33;;;3.03;;
75508;SDS011;64214;47.250;11.332;2022-10-16T00:20:45;4.05;;;3.30;;
75508;SDS011;64214;47.250;11.332;2022-10-16T00:21:00;4.28;;;3.25;;
75508;SDS011;64214;47.250;11.332;2022-10-16T00:21:20;4.78;;;3.00;;
75508;SDS011;64214;47.250;11.332;2022-10-16T00:21:35;4.43;;;3.10;;
75508;SDS011;64214;47.250;11.332;2022-10-16T00:21:46;4.38;;;3.20;;
75508;SDS011;64214;47.250;11.332;2022-10-16T00:21:57;4.00;;;3.20;;
75508;SDS011;64214;47.250;11.332;2022-10-16T00:22:08;3.88;;;3.13;;
75508;SDS011;64214;47.250;11.332;2022-10-16T00:22:19;4.93;;;3.08;;
75508;SDS011;64214;47.250;11.332;2022-10-16T00:22:31;6.68;;;3.25;;
75508;SDS011;64214;47.250;11.332;2022-10-16T00:22:42;6.53;;;3.28;;
75508;SDS011;64214;47.250;11.332;2022-10-16T00:22:53;5.90;;;3.38;;
75508;SDS011;64214;47.250;11.332;2022-10-16T00:23:04;4.43;;;3.20;;
75508;SDS011;64214;47.250;11.332;2022-10-16T00:23:15;4.10;;;3.05;;
75508;SDS011;64214;47.250;11.332;2022-10-16T00:23:26;4.03;;;2.97;;
75508;SDS011;64214;47.250;11.332;2022-10-16T00:23:38;4.95;;;3.13;;
75508;SDS011;64214;47.250;11.332;2022-10-16T00:23:50;5.53;;;3.20;;
75508;SDS011;64214;47.250;11.332;2022-10-16T00:24:07;4.45;;;3.20;;
75508;SDS011;64214;47.250;11.332;2022-10-16T00:24:19;5.70;;;3.40;;
75508;SDS011;64214;47.250;11.332;2022-10-16T00:24:30;5.75;;;3.40;;
75508;SDS011;64214;47.250;11.332;2022-10-16T00:24:41;5.90;;;3.30;;
75508;SDS011;64214;47.250;11.332;2022-10-16T00:24:52;3.65;;;3.03;;
75508;SDS011;64214;47.250;11.332;2022-10-16T00:25:03;4.07;;;3.00;;
75508;SDS011;64214;47.250;11.332;2022-10-16T00:25:15;5.25;;;3.17;;
75508;SDS011;64214;47.250;11.332;2022-10-16T00:25:26;6.15;;;3.30;;
75508;SDS011;64214;47.250;11.332;2022-10-16T00:25:37;5.63;;;3.22;;
75508;SDS011;64214;47.250;11.332;2022-10-16T00:25:57;4.43;;;3.10;;
75508;SDS011;64214;47.250;11.332;2022-10-16T00:26:13;6.25;;;3.15;;
75508;SDS011;64214;47.250;11.332;2022-10-16T00:26:27;6.63;;;3.28;;
75508;SDS011;64214;47.250;11.332;2022-10-16T00:26:39;5.57;;;3.20;;
75508;SDS011;64214;47.250;11.332;2022-10-16T00:26:50;4.93;;;3.10;;
75508;SDS011;64214;47.250;11.332;2022-10-16T00:27:01;4.88;;;3.10;;
75508;SDS011;64214;47.250;11.332;2022-10-16T00:27:13;4.65;;;3.30;;
75508;SDS011;64214;47.250;11.332;2022-10-16T00:27:27;4.50;;;3.30;;
75508;SDS011;64214;47.250;11.332;2022-10-16T00:27:38;5.70;;;3.40;;
75508;SDS011;64214;47.250;11.332;2022-10-16T00:27:49;6.18;;;3.30;;
75508;SDS011;64214;47.250;11.332;2022-10-16T00:28:00;6.35;;;3.28;;
75508;SDS011;64214;47.250;11.332;2022-10-16T00:28:14;4.65;;;3.20;;
75508;SDS011;64214;47.250;11.332;2022-10-16T00:28:25;4.68;;;3.25;;
75508;SDS011;64214;47.250;11.332;2022-10-16T00:28:37;6.13;;;3.22;;
75508;SDS011;64214;47.250;11.332;2022-10-16T00:28:49;6.05;;;3.13;;
75508;SDS011;64214;47.250;11.332;2022-10-16T00:29:01;3.60;;;3.00;;
75508;SDS011;64214;47.250;11.332;2022-10-16T00:29:12;3.60;;;2.90;;
75508;SDS011;64214;47.250;11.332;2022-10-16T00:29:23;4.03;;;2.90;;
75508;SDS011;64214;47.250;11.332;2022-10-16T00:29:34;5.22;;;3.05;;
75508;SDS011;64214;47.250;11.332;2022-10-16T00:29:48;5.00;;;3.20;;
75508;SDS011;64214;47.250;11.332;2022-10-16T00:30:00;4.28;;;3.03;;
75508;SDS011;64214;47.250;11.332;2022-10-16T00:30:12;4.55;;;3.08;;
75508;SDS011;64214;47.250;11.332;2022-10-16T00:30:23;4.70;;;3.30;;
75508;SDS011;64214;47.250;11.332;2022-10-16T00:30:37;4.05;;;3.20;;
75508;SDS011;64214;47.250;11.332;2022-10-16T00:30:49;3.88;;;2.85;;
75508;SDS011;64214;47.250;11.332;2022-10-16T00:31:03;4.40;;;3.08;;
75508;SDS011;64214;47.250;11.332;2022-10-16T00:31:19;4.32;;;3.28;;
75508;SDS011;64214;47.250;11.332;2022-10-16T00:31:31;3.95;;;3.10;;
75508;SDS011;64214;47.250;11.332;2022-10-16T00:31:43;3.90;;;3.05;;
75508;SDS011;64214;47.250;11.332;2022-10-16T00:31:54;3.90;;;3.05;;
75508;SDS011;64214;47.250;11.332;2022-10-16T00:32:05;4.30;;;3.15;;
75508;SDS011;64214;47.250;11.332;2022-10-16T00:32:16;4.18;;;3.20;;
75508;SDS011;64214;47.250;11.332;2022-10-16T00:32:27;4.43;;;3.30;;
75508;SDS011;64214;47.250;11.332;2022-10-16T00:32:39;4.63;;;3.30;;
75508;SDS011;64214;47.250;11.332;2022-10-16T00:32:50;4.97;;;3.35;;
75508;SDS011;64214;47.250;11.332;2022-10-16T00:33:01;5.03;;;3.40;;
75508;SDS011;64214;47.250;11.332;2022-10-16T00:33:12;4.85;;;3.15;;
75508;SDS011;64214;47.250;11.332;2022-10-16T00:33:23;3.75;;;2.95;;
75508;SDS011;64214;47.250;11.332;2022-10-16T00:33:34;3.70;;;3.00;;
75508;SDS011;64214;47.250;11.332;2022-10-16T00:33:46;3.95;;;2.95;;
75508;SDS011;64214;47.250;11.332;2022-10-16T00:33:57;3.92;;;2.97;;
75508;SDS011;64214;47.250;11.332;2022-10-16T00:34:08;4.28;;;3.10;;
75508;SDS011;64214;47.250;11.332;2022-10-16T00:34:19;4.43;;;3.28;;
75508;SDS011;64214;47.250;11.332;2022-10-16T00:34:30;5.45;;;3.40;;
75508;SDS011;64214;47.250;11.332;2022-10-16T00:34:41;5.68;;;3.50;;
75508;SDS011;64214;47.250;11.332;2022-10-16T00:34:53;5.28;;;3.50;;
75508;SDS011;64214;47.250;11.332;2022-10-16T00:35:05;4.13;;;3.13;;
75508;SDS011;64214;47.250;11.332;2022-10-16T00:35:16;3.60;;;2.97;;
75508;SDS011;64214;47.250;11.332;2022-10-16T00:35:27;4.57;;;3.13;;
75508;SDS011;64214;47.250;11.332;2022-10-16T00:35:39;4.75;;;3.20;;
75508;SDS011;64214;47.250;11.332;2022-10-16T00:35:50;5.35;;;3.33;;
75508;SDS011;64214;47.250;11.332;2022-10-16T00:36:02;5.13;;;3.40;;
75508;SDS011;64214;47.250;11.332;2022-10-16T00:36:16;5.00;;;3.30;;
75508;SDS011;64214;47.250;11.332;2022-10-16T00:36:29;4.57;;;3.03;;
75508;SDS011;64214;47.250;11.332;2022-10-16T00:36:41;4.15;;;2.95;;
75508;SDS011;64214;47.250;11.332;2022-10-16T00:36:52;4.45;;;3.05;;
75508;SDS011;64214;47.250;11.332;2022-10-16T00:37:03;4.25;;;3.35;;
75508;SDS011;64214;47.250;11.332;2022-10-16T00:37:14;4.72;;;3.53;;
75508;SDS011;64214;47.250;11.332;2022-10-16T00:37:25;4.80;;;3.22;;
75508;SDS011;64214;47.250;11.332;2022-10-16T00:37:36;5.18;;;3.03;;
75508;SDS011;64214;47.250;11.332;2022-10-16T00:37:47;5.13;;;2.90;;
75508;SDS011;64214;47.250;11.332;2022-10-16T00:37:58;4.53;;;2.90;;
75508;SDS011;64214;47.250;11.332;2022-10-16T00:38:10;4.78;;;3.08;;
75508;SDS011;64214;47.250;11.332;2022-10-16T00:38:21;5.07;;;3.40;;
75508;SDS011;64214;47.250;11.332;2022-10-16T00:38:32;6.22;;;3.45;;
75508;SDS011;64214;47.250;11.332;2022-10-16T00:38:43;6.13;;;3.42;;
75508;SDS011;64214;47.250;11.332;2022-10-16T00:38:55;6.20;;;3.45;;
75508;SDS011;64214;47.250;11.332;2022-10-16T00:39:08;5.20;;;3.22;;
75508;SDS011;64214;47.250;11.332;2022-10-16T00:39:19;4.65;;;3.00;;
75508;SDS011;64214;47.250;11.332;2022-10-16T00:39:30;4.68;;;3.00;;
75508;SDS011;64214;47.250;11.332;2022-10-16T00:39:41;4.43;;;3.00;;
75508;SDS011;64214;47.250;11.332;2022-10-16T00:39:52;4.03;;;2.95;;
75508;SDS011;64214;47.250;11.332;2022-10-16T00:40:03;4.05;;;2.90;;
75508;SDS011;64214;47.250;11.332;2022-10-16T00:40:15;4.35;;;3.00;;
75508;SDS011;64214;47.250;11.332;2022-10-16T00:40:26;5.32;;;3.08;;
75508;SDS011;64214;47.250;11.332;2022-10-16T00:40:39;5.13;;;3.20;;
75508;SDS011;64214;47.250;11.332;2022-10-16T00:40:50;4.10;;;3.17;;
75508;SDS011;64214;47.250;11.332;2022-10-16T00:41:01;3.67;;;3.15;;
75508;SDS011;64214;47.250;11.332;2022-10-16T00:41:13;3.92;;;3.20;;
75508;SDS011;64214;47.250;11.332;2022-10-16T00:41:26;4.13;;;3.13;;
75508;SDS011;64214;47.250;11.332;2022-10-16T00:41:38;4.55;;;3.15;;
75508;SDS011;64214;47.250;11.332;2022-10-16T00:41:50;4.25;;;3.05;;
75508;SDS011;64214;47.250;11.332;2022-10-16T00:42:01;4.18;;;3.10;;
75508;SDS011;64214;47.250;11.332;2022-10-16T00:42:16;3.78;;;3.05;;
75508;SDS011;64214;47.250;11.332;2022-10-16T00:42:27;3.92;;;3.00;;
75508;SDS011;64214;47.250;11.332;2022-10-16T00:42:38;4.78;;;2.92;;
75508;SDS011;64214;47.250;11.332;2022-10-16T00:42:49;5.28;;;3.10;;
75508;SDS011;64214;47.250;11.332;2022-10-16T00:43:00;5.43;;;3.30;;
75508;SDS011;64214;47.250;11.332;2022-10-16T00:43:32;4.25;;;3.40;;
75508;SDS011;64214;47.250;11.332;2022-10-16T00:43:50;4.57;;;3.38;;
75508;SDS011;64214;47.250;11.332;2022-10-16T00:44:40;3.92;;;2.97;;
75508;SDS011;64214;47.250;11.332;2022-10-16T00:44:55;4.95;;;3.08;;
75508;SDS011;64214;47.250;11.332;2022-10-16T00:45:08;3.85;;;3.17;;
75508;SDS011;64214;47.250;11.332;2022-10-16T00:45:19;4.57;;;3.58;;
75508;SDS011;64214;47.250;11.332;2022-10-16T00:45:30;4.25;;;3.25;;
75508;SDS011;64214;47.250;11.332;2022-10-16T00:45:42;4.45;;;3.28;;
75508;SDS011;64214;47.250;11.332;2022-10-16T00:45:53;3.88;;;2.95;;
75508;SDS011;64214;47.250;11.332;2022-10-16T00:46:07;4.05;;;3.10;;
75508;SDS011;64214;47.250;11.332;2022-10-16T00:46:40;5.63;;;3.30;;
75508;SDS011;64214;47.250;11.332;2022-10-16T00:46:52;5.35;;;3.13;;
75508;SDS011;64214;47.250;11.332;2022-10-16T00:47:03;5.13;;;3.17;;
75508;SDS011;64214;47.250;11.332;2022-10-16T00:47:34;4.97;;;3.20;;
75508;SDS011;64214;47.250;11.332;2022-10-16T00:47:49;5.25;;;3.33;;
75508;SDS011;64214;47.250;11.332;2022-10-16T00:48:03;4.45;;;3.00;;
75508;SDS011;64214;47.250;11.332;2022-10-16T00:48:14;4.65;;;3.22;;
75508;SDS011;64214;47.250;11.332;2022-10-16T00:48:25;5.18;;;3.35;;
75508;SDS011;64214;47.250;11.332;2022-10-16T00:48:36;4.90;;;3.40;;
75508;SDS011;64214;47.250;11.332;2022-10-16T00:48:49;5.00;;;3.35;;
75508;SDS011;64214;47.250;11.332;2022-10-16T00:49:11;5.55;;;3.38;;
75508;SDS011;64214;47.250;11.332;2022-10-16T00:49:24;4.15;;;3.50;;
75508;SDS011;64214;47.250;11.332;2022-10-16T00:49:35;3.95;;;3.35;;
75508;SDS011;64214;47.250;11.332;2022-10-16T00:49:46;3.97;;;3.42;;
75508;SDS011;64214;47.250;11.332;2022-10-16T00:50:00;4.40;;;3.40;;
75508;SDS011;64214;47.250;11.332;2022-10-16T00:50:33;4.75;;;3.50;;
75508;SDS011;64214;47.250;11.332;2022-10-16T00:50:44;4.13;;;3.40;;
75508;SDS011;64214;47.250;11.332;2022-10-16T00:50:56;4.35;;;3.20;;
75508;SDS011;64214;47.250;11.332;2022-10-16T00:51:07;4.95;;;3.30;;
75508;SDS011;64214;47.250;11.332;2022-10-16T00:51:19;5.80;;;3.60;;
75508;SDS011;64214;47.250;11.332;2022-10-16T00:51:37;5.38;;;3.50;;
75508;SDS011;64214;47.250;11.332;2022-10-16T00:52:01;5.18;;;3.50;;
75508;SDS011;64214;47.250;11.332;2022-10-16T00:52:13;5.22;;;3.47;;
75508;SDS011;64214;47.250;11.332;2022-10-16T00:52:25;5.82;;;3.60;;
75508;SDS011;64214;47.250;11.332;2022-10-16T00:52:36;6.15;;;3.67;;
75508;SDS011;64214;47.250;11.332;2022-10-16T00:52:48;6.35;;;3.70;;
75508;SDS011;64214;47.250;11.332;2022-10-16T00:53:01;6.03;;;3.58;;
75508;SDS011;64214;47.250;11.332;2022-10-16T00:53:12;4.97;;;3.47;;
75508;SDS011;64214;47.250;11.332;2022-10-16T00:53:24;4.80;;;3.38;;
75508;SDS011;64214;47.250;11.332;2022-10-16T00:53:35;5.47;;;3.42;;
75508;SDS011;64214;47.250;11.332;2022-10-16T00:53:47;6.10;;;3.50;;
75508;SDS011;64214;47.250;11.332;2022-10-16T00:53:59;6.22;;;3.60;;
75508;SDS011;64214;47.250;11.332;2022-10-16T00:54:12;5.65;;;3.58;;
75508;SDS011;64214;47.250;11.332;2022-10-16T00:54:26;5.22;;;3.53;;
75508;SDS011;64214;47.250;11.332;2022-10-16T00:54:39;5.93;;;3.65;;
75508;SDS011;64214;47.250;11.332;2022-10-16T00:54:50;5.68;;;3.65;;
75508;SDS011;64214;47.250;11.332;2022-10-16T00:55:03;5.22;;;3.58;;
75508;SDS011;64214;47.250;11.332;2022-10-16T00:55:15;4.80;;;3.38;;
75508;SDS011;64214;47.250;11.332;2022-10-16T00:55:27;4.80;;;3.30;;
75508;SDS011;64214;47.250;11.332;2022-10-16T00:55:40;4.90;;;3.40;;
75508;SDS011;64214;47.250;11.332;2022-10-16T00:55:52;5.25;;;3.40;;
75508;SDS011;64214;47.250;11.332;2022-10-16T00:56:04;5.55;;;3.40;;
75508;SDS011;64214;47.250;11.332;2022-10-16T00:56:15;4.97;;;3.33;;
75508;SDS011;64214;47.250;11.332;2022-10-16T00:56:27;4.63;;;3.22;;
75508;SDS011;64214;47.250;11.332;2022-10-16T00:56:38;4.97;;;3.20;;
75508;SDS011;64214;47.250;11.332;2022-10-16T00:56:49;5.50;;;3.20;;
75508;SDS011;64214;47.250;11.332;2022-10-16T00:57:01;4.88;;;3.10;;
75508;SDS011;64214;47.250;11.332;2022-10-16T00:57:14;3.95;;;3.20;;
75508;SDS011;64214;47.250;11.332;2022-10-16T00:57:26;4.72;;;3.42;;
75508;SDS011;64214;47.250;11.332;2022-10-16T00:57:37;4.47;;;3.30;;
75508;SDS011;64214;47.250;11.332;2022-10-16T00:57:48;4.40;;;3.30;;
75508;SDS011;64214;47.250;11.332;2022-10-16T00:58:00;3.83;;;3.20;;
75508;SDS011;64214;47.250;11.332;2022-10-16T00:58:11;4.20;;;3.20;;
75508;SDS011;64214;47.250;11.332;2022-10-16T00:58:23;4.63;;;3.03;;
75508;SDS011;64214;47.250;11.332;2022-10-16T00:58:36;4.35;;;3.00;;
75508;SDS011;64214;47.250;11.332;2022-10-16T00:58:48;4.07;;;3.00;;
75508;SDS011;64214;47.250;11.332;2022-10-16T00:58:59;4.15;;;2.97;;
75508;SDS011;64214;47.250;11.332;2022-10-16T00:59:18;3.70;;;2.80;;
75508;SDS011;64214;47.250;11.332;2022-10-16T00:59:34;4.00;;;3.08;;
75508;SDS011;64214;47.250;11.332;2022-10-16T00:59:47;4.73;;;3.50;;
75508;SDS011;64214;47.250;11.332;2022-10-16T00:59:59;5.20;;;3.42;;
75508;SDS011;64214;47.250;11.332;2022-10-16T01:00:15;5.03;;;3.33;;
75508;SDS011;64214;47.250;11.332;2022-10-16T01:00:28;4.68;;;3.35;;
75508;SDS011;64214;47.250;11.332;2022-10-16T01:00:39;5.13;;;3.33;;
75508;SDS011;64214;47.250;11.332;2022-10-16T01:00:51;4.43;;;3.22;;
75508;SDS011;64214;47.250;11.332;2022-10-16T01:01:02;5.57;;;3.33;;
75508;SDS011;64214;47.250;11.332;2022-10-16T01:01:13;5.63;;;3.40;;
75508;SDS011;64214;47.250;11.332;2022-10-16T01:01:24;5.97;;;3.45;;
75508;SDS011;64214;47.250;11.332;2022-10-16T01:01:35;4.57;;;3.45;;
75508;SDS011;64214;47.250;11.332;2022-10-16T01:01:46;5.05;;;3.58;;
75508;SDS011;64214;47.250;11.332;2022-10-16T01:01:57;4.85;;;3.60;;
75508;SDS011;64214;47.250;11.332;2022-10-16T01:02:11;4.95;;;3.28;;
75508;SDS011;64214;47.250;11.332;2022-10-16T01:02:24;4.57;;;3.10;;
75508;SDS011;64214;47.250;11.332;2022-10-16T01:02:35;4.80;;;3.30;;
75508;SDS011;64214;47.250;11.332;2022-10-16T01:02:56;4.28;;;3.33;;
75508;SDS011;64214;47.250;11.332;2022-10-16T01:03:22;4.78;;;3.28;;
75508;SDS011;64214;47.250;11.332;2022-10-16T01:03:36;5.70;;;3.45;;
75508;SDS011;64214;47.250;11.332;2022-10-16T01:03:47;6.50;;;3.38;;
75508;SDS011;64214;47.250;11.332;2022-10-16T01:03:58;5.80;;;3.33;;
75508;SDS011;64214;47.250;11.332;2022-10-16T01:04:09;5.38;;;3.35;;
75508;SDS011;64214;47.250;11.332;2022-10-16T01:04:21;4.40;;;3.15;;
75508;SDS011;64214;47.250;11.332;2022-10-16T01:04:37;4.82;;;3.15;;
75508;SDS011;64214;47.250;11.332;2022-10-16T01:04:51;4.30;;;3.13;;
75508;SDS011;64214;47.250;11.332;2022-10-16T01:05:03;4.70;;;3.15;;
75508;SDS011;64214;47.250;11.332;2022-10-16T01:05:15;4.72;;;3.15;;
75508;SDS011;64214;47.250;11.332;2022-10-16T01:05:30;4.88;;;3.10;;
75508;SDS011;64214;47.250;11.332;2022-10-16T01:06:23;4.22;;;3.00;;
75508;SDS011;64214;47.250;11.332;2022-10-16T01:08:21;4.47;;;3.30;;
75508;SDS011;64214;47.250;11.332;2022-10-16T01:08:52;3.75;;;2.88;;
75508;SDS011;64214;47.250;11.332;2022-10-16T01:10:17;4.00;;;3.20;;
75508;SDS011;64214;47.250;11.332;2022-10-16T01:10:38;5.18;;;3.60;;
75508;SDS011;64214;47.250;11.332;2022-10-16T01:10:54;6.10;;;3.30;;
75508;SDS011;64214;47.250;11.332;2022-10-16T01:11:15;4.85;;;3.50;;
75508;SDS011;64214;47.250;11.332;2022-10-16T01:11:33;4.65;;;3.58;;
75508;SDS011;64214;47.250;11.332;2022-10-16T01:13:10;5.30;;;3.17;;
75508;SDS011;64214;47.250;11.332;2022-10-16T01:13:27;4.80;;;3.25;;
75508;SDS011;64214;47.250;11.332;2022-10-16T01:13:47;4.82;;;3.00;;
75508;SDS011;64214;47.250;11.332;2022-10-16T01:14:10;5.43;;;3.10;;
75508;SDS011;64214;47.250;11.332;2022-10-16T01:14:54;4.22;;;3.05;;
75508;SDS011;64214;47.250;11.332;2022-10-16T01:16:05;5.82;;;3.17;;
75508;SDS011;64214;47.250;11.332;2022-10-16T01:16:25;3.90;;;3.15;;
75508;SDS011;64214;47.250;11.332;2022-10-16T01:17:18;3.75;;;3.00;;
75508;SDS011;64214;47.250;11.332;2022-10-16T01:18:00;4.28;;;2.97;;
75508;SDS011;64214;47.250;11.332;2022-10-16T01:18:47;4.15;;;2.90;;
75508;SDS011;64214;47.250;11.332;2022-10-16T01:19:09;5.00;;;3.17;;
75508;SDS011;64214;47.250;11.332;2022-10-16T01:20:21;3.47;;;2.88;;
75508;SDS011;64214;47.250;11.332;2022-10-16T01:20:50;4.03;;;3.15;;
75508;SDS011;64214;47.250;11.332;2022-10-16T01:21:22;4.97;;;3.20;;
75508;SDS011;64214;47.250;11.332;2022-10-16T01:21:40;4.55;;;3.10;;
75508;SDS011;64214;47.250;11.332;2022-10-16T01:21:54;4.85;;;3.05;;
75508;SDS011;64214;47.250;11.332;2022-10-16T01:22:05;4.60;;;3.10;;
75508;SDS011;64214;47.250;11.332;2022-10-16T01:22:18;4.35;;;3.05;;
75508;SDS011;64214;47.250;11.332;2022-10-16T01:22:33;3.67;;;2.83;;
75508;SDS011;64214;47.250;11.332;2022-10-16T01:23:05;4.20;;;2.80;;
75508;SDS011;64214;47.250;11.332;2022-10-16T01:24:40;4.28;;;2.95;;
75508;SDS011;64214;47.250;11.332;2022-10-16T01:24:52;4.90;;;3.10;;
75508;SDS011;64214;47.250;11.332;2022-10-16T01:25:06;5.15;;;3.42;;
75508;SDS011;64214;47.250;11.332;2022-10-16T01:25:31;4.50;;;3.17;;
75508;SDS011;64214;47.250;11.332;2022-10-16T01:26:36;4.47;;;3.08;;
75508;SDS011;64214;47.250;11.332;2022-10-16T01:27:02;3.80;;;2.60;;
75508;SDS011;64214;47.250;11.332;2022-10-16T01:27:19;4.43;;;2.90;;
75508;SDS011;64214;47.250;11.332;2022-10-16T01:27:32;5.07;;;2.92;;
75508;SDS011;64214;47.250;11.332;2022-10-16T01:27:43;4.63;;;2.75;;
75508;SDS011;64214;47.250;11.332;2022-10-16T01:27:56;3.40;;;2.50;;
75508;SDS011;64214;47.250;11.332;2022-10-16T01:28:08;3.70;;;2.70;;
75508;SDS011;64214;47.250;11.332;2022-10-16T01:28:21;4.13;;;2.80;;
75508;SDS011;64214;47.250;11.332;2022-10-16T01:28:57;4.85;;;3.15;;
75508;SDS011;64214;47.250;11.332;2022-10-16T01:29:53;5.20;;;2.88;;
75508;SDS011;64214;47.250;11.332;2022-10-16T01:30:28;4.82;;;3.17;;